Time;durP1;ratioP1;P1;durP2;ratioP2;P2;SDS_P1;SDS_P2;PMS_P1;PMS_P2;Temp;Humidity;BMP_temperature;BMP_pressure;BME280_temperature;BME280_humidity;BME280_pressure;Samples;Min_cycle;Max_cycle;Signal;HPM_P1;HPM_P2
2023/05/18 00:00:09;;;;;;;7.72;2.60;;;9.30;99.90;;;;;;4994154;28;20054;-68
2023/05/18 00:02:36;;;;;;;6.90;2.13;;;9.40;99.90;;;;;;4993501;28;20038;-68
2023/05/18 00:05:03;;;;;;;10.55;3.00;;;;;;;;;;4993473;28;20599;-69
2023/05/18 00:07:32;;;;;;;8.02;2.35;;;9.20;99.90;;;;;;5009114;28;20057;-68
2023/05/18 00:09:59;;;;;;;10.10;3.60;;;;;;;;;;4992578;28;20535;-69
2023/05/18 00:12:25;;;;;;;6.07;2.22;;;9.20;99.90;;;;;;5009555;28;20046;-69
2023/05/18 00:14:51;;;;;;;8.35;2.20;;;9.10;99.90;;;;;;4993584;28;20053;-69
2023/05/18 00:17:19;;;;;;;8.73;2.22;;;;;;;;;;4993677;28;20076;-69
2023/05/18 00:19:45;;;;;;;9.60;2.30;;;;;;;;;;4993170;28;20046;-69
2023/05/18 00:22:17;;;;;;;5.72;2.40;;;;;;;;;;4993398;28;20420;-69
2023/05/18 00:24:47;;;;;;;8.10;2.53;;;8.90;99.90;;;;;;4993795;28;20505;-69
2023/05/18 00:27:13;;;;;;;5.70;1.80;;;9.10;99.90;;;;;;4993302;28;20050;-69
2023/05/18 00:29:40;;;;;;;5.32;1.95;;;;;;;;;;4992736;28;20038;-69
2023/05/18 00:32:06;;;;;;;11.15;2.85;;;;;;;;;;4992920;28;20125;-69
2023/05/18 00:34:32;;;;;;;7.75;2.28;;;;;;;;;;4993402;28;20481;-68
2023/05/18 00:36:58;;;;;;;8.40;2.20;;;;;;;;;;4992632;28;20042;-69
2023/05/18 00:39:24;;;;;;;7.95;2.28;;;;;;;;;;4992959;28;20104;-68
2023/05/18 00:41:50;;;;;;;11.40;2.80;;;;;;;;;;4992902;28;20562;-69
2023/05/18 00:44:16;;;;;;;7.88;2.08;;;;;;;;;;5009490;28;20038;-69
2023/05/18 00:46:43;;;;;;;5.22;2.10;;;;;;;;;;4993179;28;20042;-69
2023/05/18 00:49:09;;;;;;;7.13;2.45;;;8.90;99.90;;;;;;4992819;28;20049;-69
2023/05/18 00:51:35;;;;;;;8.68;2.05;;;9.00;99.90;;;;;;4992654;28;20407;-69
2023/05/18 00:54:02;;;;;;;10.15;2.10;;;8.80;99.90;;;;;;4992674;28;20043;-69
2023/05/18 00:56:32;;;;;;;7.13;2.20;;;;;;;;;;4976719;28;20569;-69
2023/05/18 00:59:00;;;;;;;7.47;2.38;;;8.90;99.90;;;;;;4992828;28;20126;-68
2023/05/18 01:01:28;;;;;;;8.38;2.33;;;8.80;99.90;;;;;;5008793;28;20073;-69
2023/05/18 01:03:56;;;;;;;10.05;2.45;;;8.90;99.90;;;;;;4992762;28;20049;-69
2023/05/18 01:06:25;;;;;;;11.85;2.75;;;9.00;99.90;;;;;;4992414;28;20522;-69
2023/05/18 01:08:53;;;;;;;7.60;2.28;;;9.00;99.90;;;;;;4992501;28;20088;-69
2023/05/18 01:11:49;;;;;;;7.93;2.42;;;9.00;99.90;;;;;;4992292;28;20039;-68
2023/05/18 01:14:28;;;;;;;5.05;2.28;;;8.90;99.90;;;;;;4973093;28;20046;-69
2023/05/18 01:17:04;;;;;;;7.85;3.33;;;8.80;99.90;;;;;;4973000;28;20511;-69
2023/05/18 01:20:10;;;;;;;6.32;2.08;;;8.90;99.90;;;;;;4973088;28;20085;-69
2023/05/18 01:23:00;;;;;;;6.22;3.13;;;8.80;99.90;;;;;;4956601;28;20047;-69
2023/05/18 01:25:47;;;;;;;7.78;2.38;;;8.80;99.90;;;;;;4972977;28;20101;-69
2023/05/18 01:28:19;;;;;;;8.20;2.33;;;8.80;99.90;;;;;;4973094;28;20405;-69
2023/05/18 01:30:45;;;;;;;11.82;2.80;;;8.70;99.90;;;;;;4984732;28;20415;-69
2023/05/18 01:33:12;;;;;;;11.05;2.58;;;8.70;99.90;;;;;;4974586;28;20038;-69
2023/05/18 01:35:40;;;;;;;12.48;2.85;;;8.80;99.90;;;;;;4991633;28;20035;-68
2023/05/18 01:38:06;;;;;;;8.25;2.67;;;;;;;;;;4992096;28;20634;-69
2023/05/18 01:40:39;;;;;;;10.18;2.85;;;8.90;99.90;;;;;;4991835;28;20467;-69
2023/05/18 01:43:10;;;;;;;7.88;2.38;;;8.90;99.90;;;;;;4975645;28;20050;-68
2023/05/18 01:45:42;;;;;;;5.90;2.72;;;8.70;99.90;;;;;;4992111;28;20046;-68
2023/05/18 01:48:10;;;;;;;9.98;2.55;;;8.90;99.90;;;;;;4991587;28;20117;-69
2023/05/18 01:50:39;;;;;;;5.63;2.00;;;;;;;;;;4991778;28;20054;-69
2023/05/18 01:53:08;;;;;;;5.47;1.98;;;8.90;99.90;;;;;;4991395;28;20049;-69
2023/05/18 01:55:35;;;;;;;8.80;2.53;;;9.00;99.90;;;;;;4991294;28;20051;-68
2023/05/18 01:58:02;;;;;;;8.93;2.85;;;8.80;99.90;;;;;;4991850;28;20575;-69
2023/05/18 02:00:27;;;;;;;10.10;2.88;;;8.80;99.90;;;;;;4992789;28;20035;-68
2023/05/18 02:02:53;;;;;;;11.77;2.65;;;;;;;;;;4991591;28;20133;-68
2023/05/18 02:05:19;;;;;;;7.60;2.55;;;8.80;99.90;;;;;;4974991;28;20042;-68
2023/05/18 02:07:46;;;;;;;6.22;2.95;;;8.90;99.90;;;;;;4975610;28;20124;-69
2023/05/18 02:10:12;;;;;;;6.75;2.70;;;;;;;;;;4991492;28;20054;-69
2023/05/18 02:12:38;;;;;;;10.93;3.05;;;;;;;;;;4991364;28;20125;-69
2023/05/18 02:15:05;;;;;;;6.53;2.38;;;9.00;99.90;;;;;;4991489;28;20070;-69
2023/05/18 02:17:32;;;;;;;7.90;2.25;;;8.80;99.90;;;;;;4991476;28;20070;-69
2023/05/18 02:19:57;;;;;;;6.35;2.28;;;8.80;99.90;;;;;;4991635;28;20178;-69
2023/05/18 02:22:23;;;;;;;8.80;2.63;;;8.80;99.90;;;;;;4990666;28;20500;-68
2023/05/18 02:24:49;;;;;;;6.38;2.30;;;9.00;99.90;;;;;;4974985;28;20049;-69
2023/05/18 02:27:15;;;;;;;11.60;2.38;;;8.80;99.90;;;;;;4990978;28;20096;-69
2023/05/18 02:29:41;;;;;;;13.27;3.08;;;;;;;;;;4991200;28;20133;-69
2023/05/18 02:32:07;;;;;;;8.65;2.45;;;;;;;;;;4990852;28;20100;-68
2023/05/18 02:34:37;;;;;;;7.32;2.63;;;;;;;;;;4991171;28;20049;-68
2023/05/18 02:37:03;;;;;;;7.60;2.85;;;8.80;99.90;;;;;;4990992;28;20049;-69
2023/05/18 02:39:29;;;;;;;8.25;2.80;;;;;;;;;;4974641;28;20030;-69
2023/05/18 02:41:55;;;;;;;7.65;2.58;;;8.80;99.90;;;;;;4990877;28;20053;-69
2023/05/18 02:44:20;;;;;;;7.35;2.47;;;9.10;99.90;;;;;;4991032;28;20049;-69
2023/05/18 02:46:46;;;;;;;8.75;2.92;;;8.80;99.90;;;;;;4990920;28;20100;-69
2023/05/18 02:49:12;;;;;;;5.70;2.50;;;;;;;;;;4990866;28;20125;-69
2023/05/18 02:51:37;;;;;;;6.80;3.03;;;8.90;99.90;;;;;;4990864;28;20038;-69
2023/05/18 02:54:03;;;;;;;9.02;2.72;;;;;;;;;;4991023;28;20058;-69
2023/05/18 02:56:29;;;;;;;8.32;2.85;;;8.80;99.90;;;;;;4990811;28;20045;-69
2023/05/18 02:58:56;;;;;;;7.38;2.80;;;8.90;99.90;;;;;;4991959;28;20050;-68
2023/05/18 03:01:25;;;;;;;10.38;2.88;;;;;;;;;;4990244;28;20113;-68
2023/05/18 03:03:52;;;;;;;7.50;2.80;;;8.80;99.90;;;;;;5007168;28;20127;-69
2023/05/18 03:06:22;;;;;;;11.20;3.72;;;8.80;99.90;;;;;;4990691;28;20073;-69
2023/05/18 03:08:48;;;;;;;7.28;2.90;;;;;;;;;;4990675;28;20053;-68
2023/05/18 03:11:13;;;;;;;5.03;2.30;;;8.90;99.90;;;;;;4990663;28;20042;-68
2023/05/18 03:13:39;;;;;;;8.18;3.17;;;8.90;99.90;;;;;;4990403;28;20085;-69
2023/05/18 03:16:05;;;;;;;14.18;3.28;;;;;;;;;;4991595;28;20427;-68
2023/05/18 03:18:31;;;;;;;7.57;2.90;;;8.90;99.90;;;;;;4990562;28;20038;-68
2023/05/18 03:21:00;;;;;;;4.45;2.63;;;8.80;99.90;;;;;;4990663;28;20034;-68
2023/05/18 03:23:26;;;;;;;7.00;3.13;;;9.10;99.90;;;;;;4991678;28;20034;-69
2023/05/18 03:25:53;;;;;;;5.25;2.85;;;9.00;99.90;;;;;;4992158;28;20527;-69
2023/05/18 03:28:19;;;;;;;11.20;3.25;;;8.90;99.90;;;;;;4990607;28;20054;-69
2023/05/18 03:30:45;;;;;;;6.57;2.60;;;;;;;;;;4990021;28;20113;-69
2023/05/18 03:33:11;;;;;;;8.35;3.08;;;;;;;;;;4989494;28;20038;-69
2023/05/18 03:35:39;;;;;;;7.15;2.75;;;9.00;99.90;;;;;;4989669;28;20031;-69
2023/05/18 03:38:06;;;;;;;9.45;2.95;;;9.00;99.90;;;;;;4990500;28;20097;-69
2023/05/18 03:40:32;;;;;;;10.23;2.53;;;8.80;99.90;;;;;;4990592;28;20050;-69
2023/05/18 03:42:57;;;;;;;9.23;2.70;;;9.00;99.90;;;;;;4990173;28;20042;-69
2023/05/18 03:45:23;;;;;;;5.22;2.80;;;9.00;99.90;;;;;;4989948;28;20049;-68
2023/05/18 03:47:49;;;;;;;11.07;3.05;;;9.00;99.90;;;;;;4990511;28;20043;-69
2023/05/18 03:50:15;;;;;;;5.22;2.72;;;;;;;;;;4990340;28;20416;-70
2023/05/18 03:52:43;;;;;;;8.15;3.00;;;9.00;99.90;;;;;;4991683;28;20050;-69
2023/05/18 03:55:09;;;;;;;8.60;3.45;;;9.00;99.90;;;;;;4990885;28;20042;-69
2023/05/18 03:57:35;;;;;;;11.57;3.22;;;;;;;;;;4991965;28;20133;-69
2023/05/18 04:00:12;;;;;;;8.93;3.83;;;9.10;99.90;;;;;;4991781;28;20423;-69
2023/05/18 04:02:38;;;;;;;8.52;3.10;;;9.00;99.90;;;;;;4989350;28;20096;-69
2023/05/18 04:05:06;;;;;;;9.38;3.15;;;9.00;99.90;;;;;;4993617;28;20042;-68
2023/05/18 04:07:32;;;;;;;8.27;3.78;;;9.10;99.90;;;;;;4994046;28;20404;-69
2023/05/18 04:09:57;;;;;;;10.02;3.55;;;;;;;;;;4992817;28;20034;-69
2023/05/18 04:12:23;;;;;;;8.52;2.63;;;;;;;;;;4976109;28;20069;-68
2023/05/18 04:14:49;;;;;;;12.25;4.13;;;9.20;99.90;;;;;;4993145;28;20061;-69
2023/05/18 04:17:16;;;;;;;12.20;2.63;;;9.10;99.90;;;;;;4993428;28;20087;-69
2023/05/18 04:19:42;;;;;;;8.73;2.40;;;;;;;;;;4992954;28;20075;-69
2023/05/18 04:22:08;;;;;;;11.07;2.85;;;;;;;;;;4993247;28;20045;-69
2023/05/18 04:24:35;;;;;;;6.72;2.70;;;9.20;99.90;;;;;;4994375;28;20146;-69
2023/05/18 04:27:01;;;;;;;9.90;3.03;;;9.10;99.90;;;;;;4993436;28;20452;-69
2023/05/18 04:29:27;;;;;;;8.35;2.70;;;;;;;;;;4993487;28;20051;-69
2023/05/18 04:31:59;;;;;;;8.07;2.90;;;9.10;99.90;;;;;;4993057;28;20034;-69
2023/05/18 04:34:30;;;;;;;6.78;2.67;;;9.20;99.90;;;;;;4977228;28;20125;-69
2023/05/18 04:36:57;;;;;;;10.95;4.35;;;;;;;;;;4992859;28;20042;-69
2023/05/18 04:39:24;;;;;;;10.98;3.22;;;9.20;99.90;;;;;;5008686;28;20050;-69
2023/05/18 04:41:56;;;;;;;13.18;2.80;;;9.20;99.90;;;;;;4976601;28;20096;-69
2023/05/18 04:44:32;;;;;;;13.25;2.53;;;9.30;99.90;;;;;;4993644;28;20046;-69
2023/05/18 04:46:58;;;;;;;5.75;3.05;;;9.40;99.90;;;;;;4992904;28;20536;-69
2023/05/18 04:49:24;;;;;;;5.82;2.50;;;9.30;99.90;;;;;;4993017;28;20070;-69
2023/05/18 04:51:54;;;;;;;15.50;3.00;;;9.40;99.90;;;;;;4992946;28;20042;-69
2023/05/18 04:54:29;;;;;;;10.27;3.22;;;9.20;99.90;;;;;;4992668;28;20031;-69
2023/05/18 04:56:55;;;;;;;7.57;2.13;;;9.40;99.90;;;;;;4992859;28;20519;-69
2023/05/18 04:59:25;;;;;;;7.38;2.72;;;9.50;99.90;;;;;;4993080;28;20069;-69
2023/05/18 05:01:51;;;;;;;8.10;2.28;;;9.30;99.90;;;;;;4992276;28;20065;-69
2023/05/18 05:04:17;;;;;;;12.30;2.35;;;;;;;;;;4975923;28;20193;-69
2023/05/18 05:06:43;;;;;;;7.65;2.50;;;;;;;;;;4993888;28;20038;-69
2023/05/18 05:09:09;;;;;;;10.07;2.40;;;;;;;;;;4992476;28;20080;-69
2023/05/18 05:11:35;;;;;;;9.82;2.40;;;;;;;;;;4975867;28;20046;-68
2023/05/18 05:14:01;;;;;;;8.13;2.72;;;9.50;99.90;;;;;;4991040;28;20058;-69
2023/05/18 05:16:27;;;;;;;7.32;2.53;;;9.80;99.90;;;;;;4991137;28;20042;-69
2023/05/18 05:18:53;;;;;;;9.23;2.08;;;;;;;;;;4992099;28;20109;-69
2023/05/18 05:21:19;;;;;;;6.32;1.98;;;;;;;;;;4992123;28;20068;-68
2023/05/18 05:23:45;;;;;;;5.03;2.33;;;;;;;;;;4992435;28;20100;-69
2023/05/18 05:26:11;;;;;;;12.85;3.05;;;9.90;99.90;;;;;;4991910;28;20129;-68
2023/05/18 05:28:36;;;;;;;7.40;2.15;;;9.90;99.90;;;;;;4991891;28;20604;-69
2023/05/18 05:31:02;;;;;;;9.75;2.78;;;9.90;99.90;;;;;;4991698;28;20053;-68
2023/05/18 05:33:28;;;;;;;6.35;2.42;;;10.00;99.90;;;;;;4975802;28;20042;-69
2023/05/18 05:35:54;;;;;;;7.95;2.25;;;;;;;;;;4975947;28;20034;-68
2023/05/18 05:38:19;;;;;;;9.55;2.63;;;10.00;99.90;;;;;;4992054;28;20039;-69
2023/05/18 05:40:45;;;;;;;6.03;2.50;;;10.00;99.90;;;;;;4991815;28;20476;-69
2023/05/18 05:43:10;;;;;;;12.65;2.50;;;10.40;99.90;;;;;;4991858;28;20038;-69
2023/05/18 05:45:37;;;;;;;9.25;2.20;;;;;;;;;;4975227;28;20074;-68
2023/05/18 05:48:03;;;;;;;11.55;2.55;;;10.30;99.90;;;;;;4992031;28;20385;-69
2023/05/18 05:50:28;;;;;;;7.05;2.47;;;10.30;99.90;;;;;;4991589;28;20045;-69
2023/05/18 05:52:54;;;;;;;3.97;1.83;;;10.50;99.90;;;;;;4991537;28;20034;-68
2023/05/18 05:55:20;;;;;;;11.23;2.08;;;10.50;99.90;;;;;;4991679;28;20042;-68
2023/05/18 05:57:46;;;;;;;12.40;2.00;;;10.60;99.90;;;;;;4991818;28;20044;-68
2023/05/18 06:00:12;;;;;;;10.50;2.20;;;10.40;99.90;;;;;;4975585;28;20117;-69
2023/05/18 06:02:38;;;;;;;4.68;1.77;;;10.40;99.90;;;;;;4991188;28;20043;-69
2023/05/18 06:05:06;;;;;;;7.38;1.73;;;10.50;99.90;;;;;;4991374;28;20084;-69
2023/05/18 06:07:32;;;;;;;7.60;2.10;;;;;;;;;;4991507;28;20046;-69
2023/05/18 06:09:57;;;;;;;5.53;2.38;;;10.50;99.90;;;;;;4991370;28;20161;-69
2023/05/18 06:12:23;;;;;;;6.38;2.38;;;;;;;;;;5007209;28;20050;-69
2023/05/18 06:14:56;;;;;;;9.25;1.90;;;;;;;;;;4991360;28;20112;-69
2023/05/18 06:17:22;;;;;;;6.85;2.33;;;;;;;;;;4991685;28;20411;-69
2023/05/18 06:19:48;;;;;;;7.22;1.92;;;;;;;;;;4990841;28;20046;-69
2023/05/18 06:22:13;;;;;;;5.97;1.80;;;10.90;99.90;;;;;;4973256;28;20420;-70
2023/05/18 06:24:39;;;;;;;4.57;1.90;;;;;;;;;;4975199;28;20133;-69
2023/05/18 06:27:05;;;;;;;7.05;2.17;;;;;;;;;;4990920;28;20512;-69
2023/05/18 06:29:31;;;;;;;6.80;1.90;;;11.10;99.90;;;;;;4990942;28;20038;-69
2023/05/18 06:31:57;;;;;;;6.38;1.80;;;;;;;;;;4988699;28;20093;-68
2023/05/18 06:34:23;;;;;;;8.88;1.90;;;;;;;;;;4984326;28;20381;-69
2023/05/18 06:36:49;;;;;;;8.43;1.98;;;;;;;;;;4973219;28;20045;-69
2023/05/18 06:39:15;;;;;;;8.15;1.80;;;;;;;;;;4974158;28;20038;-69
2023/05/18 06:41:43;;;;;;;9.85;2.20;;;;;;;;;;4979011;28;20503;-66
2023/05/18 06:44:09;;;;;;;7.95;2.05;;;;;;;;;;4976378;28;20085;-69
2023/05/18 06:46:35;;;;;;;9.07;3.05;;;;;;;;;;4962426;28;20080;-69
2023/05/18 06:49:01;;;;;;;8.13;2.20;;;;;;;;;;4986794;28;20039;-69
2023/05/18 06:51:27;;;;;;;5.43;2.13;;;;;;;;;;4979123;28;20092;-69
2023/05/18 06:53:53;;;;;;;6.85;1.98;;;;;;;;;;4982159;28;20464;-69
2023/05/18 06:56:21;;;;;;;8.43;2.30;;;;;;;;;;4988849;28;20042;-68
2023/05/18 06:58:46;;;;;;;6.35;2.33;;;11.90;99.90;;;;;;4990855;28;20050;-69
2023/05/18 07:01:13;;;;;;;8.45;2.70;;;11.80;99.90;;;;;;4990647;28;20158;-68
2023/05/18 07:03:38;;;;;;;6.97;2.15;;;11.40;99.90;;;;;;4990829;28;20053;-68
2023/05/18 07:06:04;;;;;;;8.50;2.58;;;;;;;;;;4989732;28;20042;-69
2023/05/18 07:08:31;;;;;;;8.75;2.20;;;11.60;99.90;;;;;;4990686;28;20066;-69
2023/05/18 07:10:57;;;;;;;7.60;2.00;;;;;;;;;;4990487;28;20041;-69
2023/05/18 07:13:23;;;;;;;7.20;2.22;;;12.30;99.90;;;;;;4990357;28;20118;-69
2023/05/18 07:15:49;;;;;;;6.55;1.88;;;12.40;99.90;;;;;;5007324;28;20046;-69
2023/05/18 07:18:15;;;;;;;10.52;2.85;;;12.40;99.90;;;;;;4991496;28;20065;-69
2023/05/18 07:20:41;;;;;;;8.10;3.00;;;;;;;;;;4990852;28;20038;-69
2023/05/18 07:23:06;;;;;;;7.10;2.30;;;12.50;99.90;;;;;;4990377;28;20050;-69
2023/05/18 07:25:32;;;;;;;6.57;2.50;;;12.10;99.90;;;;;;4990452;28;20420;-68
2023/05/18 07:27:58;;;;;;;5.15;2.33;;;12.20;99.90;;;;;;4990438;28;20038;-69
2023/05/18 07:30:27;;;;;;;8.20;2.08;;;;;;;;;;4990274;28;20043;-69
2023/05/18 07:32:52;;;;;;;6.68;1.92;;;12.40;99.90;;;;;;4989407;28;20046;-69
2023/05/18 07:35:19;;;;;;;4.95;2.22;;;12.40;99.90;;;;;;4990582;28;20049;-67
2023/05/18 07:37:45;;;;;;;4.88;1.95;;;12.60;99.90;;;;;;4990827;28;20122;-69
2023/05/18 07:40:11;;;;;;;8.75;2.25;;;12.30;99.90;;;;;;4994715;28;20130;-69
2023/05/18 07:42:38;;;;;;;7.15;2.30;;;12.40;99.90;;;;;;4995502;28;20053;-68
2023/05/18 07:45:05;;;;;;;9.57;2.20;;;12.40;99.90;;;;;;4995435;28;20440;-69
2023/05/18 07:47:30;;;;;;;7.35;2.15;;;12.60;99.90;;;;;;4994103;28;20034;-68
2023/05/18 07:49:56;;;;;;;6.63;2.50;;;;;;;;;;4977665;28;20093;-69
2023/05/18 07:52:22;;;;;;;9.18;2.78;;;;;;;;;;4994014;28;20045;-69
2023/05/18 07:54:48;;;;;;;13.60;2.90;;;12.60;99.90;;;;;;4994364;28;20053;-69
2023/05/18 07:57:13;;;;;;;6.10;2.80;;;12.60;99.90;;;;;;4993915;28;20527;-69
2023/05/18 07:59:39;;;;;;;6.78;2.25;;;12.80;99.90;;;;;;4994227;28;20116;-69
2023/05/18 08:02:06;;;;;;;9.77;2.25;;;12.80;99.90;;;;;;4993644;28;20046;-69
2023/05/18 08:04:32;;;;;;;6.78;2.53;;;;;;;;;;4993904;28;20046;-69
2023/05/18 08:06:59;;;;;;;6.82;2.90;;;13.80;99.90;;;;;;4993512;28;20049;-69
2023/05/18 08:09:26;;;;;;;6.45;2.42;;;13.70;99.90;;;;;;4993467;28;20042;-69
2023/05/18 08:11:52;;;;;;;7.32;2.35;;;;;;;;;;4993173;28;20035;-69
2023/05/18 08:14:18;;;;;;;7.93;1.83;;;;;;;;;;4993753;28;20034;-69
2023/05/18 08:16:44;;;;;;;4.57;2.03;;;13.60;99.90;;;;;;4993293;28;20061;-69
2023/05/18 08:19:10;;;;;;;9.50;2.10;;;;;;;;;;4993533;28;20471;-69
2023/05/18 08:21:36;;;;;;;5.75;1.80;;;;;;;;;;4993317;28;20078;-68
2023/05/18 08:24:02;;;;;;;12.20;2.13;;;;;;;;;;4993490;28;20046;-69
2023/05/18 08:26:28;;;;;;;7.35;2.13;;;;;;;;;;4993513;28;20093;-69
2023/05/18 08:28:54;;;;;;;8.90;2.20;;;;;;;;;;4993379;28;20047;-69
2023/05/18 08:31:21;;;;;;;4.22;1.65;;;;;;;;;;4993232;28;20044;-68
2023/05/18 08:33:47;;;;;;;8.02;1.80;;;13.70;99.90;;;;;;4992935;28;20088;-69
2023/05/18 08:36:13;;;;;;;4.82;1.77;;;;;;;;;;4993043;28;20122;-69
2023/05/18 08:38:39;;;;;;;6.35;1.58;;;;;;;;;;4993224;28;20093;-69
2023/05/18 08:41:27;;;;;;;7.18;1.60;;;13.90;99.90;;;;;;4994153;28;20073;-68
2023/05/18 08:44:00;;;;;;;7.82;2.15;;;13.60;99.90;;;;;;4993150;28;20034;-69
2023/05/18 08:46:32;;;;;;;9.88;2.30;;;14.00;99.90;;;;;;4993099;28;20108;-69
2023/05/18 08:48:59;;;;;;;8.57;2.23;;;14.00;99.90;;;;;;4992437;28;20511;-69
2023/05/18 08:51:28;;;;;;;8.20;1.88;;;14.20;99.90;;;;;;4992627;28;20038;-69
2023/05/18 08:53:54;;;;;;;10.48;2.55;;;;;;;;;;4993242;28;20073;-69
2023/05/18 08:56:25;;;;;;;6.85;1.45;;;14.10;99.90;;;;;;4992829;28;20072;-68
2023/05/18 08:58:53;;;;;;;6.78;2.03;;;14.30;99.90;;;;;;4976906;28;20065;-69
2023/05/18 09:01:19;;;;;;;5.85;1.70;;;14.40;99.90;;;;;;4976529;28;20039;-68
2023/05/18 09:03:48;;;;;;;8.20;1.98;;;14.10;99.90;;;;;;4992771;28;20097;-69
2023/05/18 09:06:14;;;;;;;5.20;1.90;;;14.20;99.90;;;;;;4976053;28;20266;-69
2023/05/18 09:08:40;;;;;;;5.63;1.90;;;14.10;99.90;;;;;;4976578;28;20042;-69
2023/05/18 09:11:07;;;;;;;6.45;2.03;;;14.20;99.90;;;;;;4992413;28;20045;-68
2023/05/18 09:13:33;;;;;;;8.50;2.38;;;14.10;99.90;;;;;;4992749;28;20500;-69
2023/05/18 09:15:58;;;;;;;5.47;1.90;;;14.20;99.90;;;;;;4992722;28;20069;-69
2023/05/18 09:18:24;;;;;;;8.18;2.30;;;14.30;99.90;;;;;;4993903;28;20121;-69
2023/05/18 09:20:50;;;;;;;7.90;2.17;;;14.20;99.90;;;;;;4992173;28;20129;-70
2023/05/18 09:23:16;;;;;;;10.68;2.28;;;14.50;99.90;;;;;;4992044;28;20053;-69
2023/05/18 09:25:48;;;;;;;8.63;2.13;;;14.80;99.90;;;;;;4992397;28;20038;-68
2023/05/18 09:28:36;;;;;;;6.90;2.40;;;14.40;99.90;;;;;;4992296;28;20136;-69
2023/05/18 09:31:16;;;;;;;5.05;2.58;;;14.80;99.90;;;;;;4991859;28;20566;-68
2023/05/18 09:33:43;;;;;;;7.55;1.98;;;14.70;99.90;;;;;;4992275;28;20508;-69
2023/05/18 09:36:11;;;;;;;7.03;2.17;;;15.00;99.90;;;;;;4993373;28;20448;-69
2023/05/18 09:38:44;;;;;;;14.23;2.92;;;15.10;99.90;;;;;;4991718;28;20046;-69
2023/05/18 09:41:15;;;;;;;9.65;2.42;;;15.00;99.90;;;;;;4975575;28;20038;-69
2023/05/18 09:43:46;;;;;;;5.97;1.63;;;14.60;99.90;;;;;;4992037;28;20042;-69
2023/05/18 09:46:13;;;;;;;8.05;2.35;;;15.10;99.90;;;;;;4991959;28;20042;-69
2023/05/18 09:48:44;;;;;;;9.13;1.90;;;15.20;99.90;;;;;;4992081;28;20034;-69
2023/05/18 09:51:14;;;;;;;6.80;2.42;;;15.00;99.90;;;;;;4991853;28;20073;-69
2023/05/18 09:53:41;;;;;;;12.93;2.65;;;14.90;99.90;;;;;;4976002;28;20030;-69
2023/05/18 09:56:10;;;;;;;6.22;1.88;;;14.80;99.90;;;;;;4991981;28;20045;-69
2023/05/18 09:58:38;;;;;;;11.02;3.33;;;15.00;99.90;;;;;;4991566;28;20046;-69
2023/05/18 10:01:04;;;;;;;6.10;2.13;;;15.10;99.90;;;;;;4990619;28;20049;-68
2023/05/18 10:03:37;;;;;;;5.70;1.70;;;14.80;99.90;;;;;;4991647;28;20043;-69
2023/05/18 10:06:08;;;;;;;7.10;1.92;;;14.90;99.90;;;;;;4991578;28;20046;-69
2023/05/18 10:08:35;;;;;;;3.75;1.70;;;15.20;99.90;;;;;;4991644;28;20121;-69
2023/05/18 10:11:01;;;;;;;6.50;2.03;;;;;;;;;;4991311;28;20521;-67
2023/05/18 10:13:28;;;;;;;8.70;1.85;;;15.70;99.90;;;;;;4991548;28;20042;-69
2023/05/18 10:15:59;;;;;;;6.40;2.40;;;15.80;99.90;;;;;;4991068;28;20037;-69
2023/05/18 10:18:33;;;;;;;6.43;2.00;;;15.50;99.90;;;;;;4991567;28;20046;-69
2023/05/18 10:21:00;;;;;;;7.13;2.03;;;15.50;99.90;;;;;;4991628;28;20042;-69
2023/05/18 10:23:29;;;;;;;6.45;1.80;;;15.40;99.90;;;;;;4991303;28;20042;-69
2023/05/18 10:25:56;;;;;;;11.13;2.92;;;15.30;99.90;;;;;;4991364;28;20479;-69
2023/05/18 10:28:27;;;;;;;9.45;2.90;;;15.60;99.90;;;;;;4991712;28;20500;-69
2023/05/18 10:30:55;;;;;;;9.57;3.03;;;14.80;99.90;;;;;;4990911;28;20042;-69
2023/05/18 10:33:22;;;;;;;6.85;2.53;;;14.60;99.90;;;;;;4990595;28;20455;-69
2023/05/18 10:35:49;;;;;;;5.03;1.77;;;14.60;99.90;;;;;;4991261;28;20034;-69
2023/05/18 10:38:24;;;;;;;10.35;2.60;;;15.90;99.90;;;;;;4975202;28;20042;-69
2023/05/18 10:40:52;;;;;;;8.88;2.20;;;15.40;99.90;;;;;;5007989;28;20500;-69
2023/05/18 10:43:20;;;;;;;4.60;2.17;;;16.00;99.90;;;;;;4991601;28;20046;-69
2023/05/18 10:45:50;;;;;;;10.63;3.00;;;15.50;99.90;;;;;;4991781;28;20503;-69
2023/05/18 10:48:17;;;;;;;6.47;3.15;;;15.30;99.90;;;;;;4991415;28;20050;-69
2023/05/18 10:50:43;;;;;;;6.65;2.30;;;16.10;99.90;;;;;;4990582;28;20042;-69
2023/05/18 10:53:10;;;;;;;9.52;2.47;;;16.60;99.90;;;;;;4991132;28;20096;-69
2023/05/18 10:55:36;;;;;;;9.68;2.28;;;16.20;99.90;;;;;;4991054;28;20534;-68
2023/05/18 10:58:11;;;;;;;5.70;2.63;;;16.00;99.90;;;;;;4991074;28;20085;-69
2023/05/18 11:00:38;;;;;;;7.32;2.25;;;15.70;99.90;;;;;;4990939;28;20042;-69
2023/05/18 11:03:09;;;;;;;6.82;2.10;;;15.70;99.90;;;;;;4990468;28;20519;-69
2023/05/18 11:05:35;;;;;;;6.80;2.40;;;15.60;99.90;;;;;;4990875;28;20050;-68
2023/05/18 11:08:02;;;;;;;6.38;2.35;;;16.10;99.90;;;;;;4990406;28;20458;-69
2023/05/18 11:10:46;;;;;;;12.52;2.33;;;16.20;99.90;;;;;;4990604;28;20050;-70
2023/05/18 11:13:13;;;;;;;7.45;2.75;;;16.30;99.90;;;;;;4993048;28;20046;-69
2023/05/18 11:16:03;;;;;;;7.18;2.10;;;16.80;99.90;;;;;;4994745;28;20042;-68
2023/05/18 11:18:49;;;;;;;6.45;1.77;;;16.80;99.90;;;;;;4994734;28;20519;-69
2023/05/18 11:21:33;;;;;;;4.05;1.60;;;17.00;99.90;;;;;;4978147;28;20042;-69
2023/05/18 11:24:29;;;;;;;8.85;2.35;;;16.60;99.90;;;;;;4978522;28;20089;-70
2023/05/18 11:27:02;;;;;;;11.43;2.53;;;16.60;99.90;;;;;;4998864;28;20049;-69
2023/05/18 11:29:35;;;;;;;9.52;2.63;;;16.60;99.90;;;;;;4978373;28;20046;-69
2023/05/18 11:32:01;;;;;;;7.00;2.40;;;15.60;99.90;;;;;;4978084;28;20404;-69
2023/05/18 11:34:33;;;;;;;7.25;2.72;;;16.50;99.90;;;;;;4994568;28;20523;-69
2023/05/18 11:36:59;;;;;;;5.37;2.47;;;16.20;99.90;;;;;;4994390;28;20038;-69
2023/05/18 11:39:24;;;;;;;7.93;2.58;;;16.40;99.90;;;;;;4994263;28;20826;-70
2023/05/18 11:42:05;;;;;;;6.90;2.65;;;16.50;99.90;;;;;;4994852;28;20034;-69
2023/05/18 11:44:32;;;;;;;7.07;2.42;;;16.60;99.90;;;;;;4994316;28;20046;-69
2023/05/18 11:46:57;;;;;;;5.68;2.50;;;17.00;99.90;;;;;;4994366;28;20058;-69
2023/05/18 11:49:31;;;;;;;6.13;2.47;;;17.20;99.90;;;;;;4994120;28;20586;-69
2023/05/18 11:52:01;;;;;;;4.85;2.58;;;17.40;99.90;;;;;;5010393;28;20046;-69
2023/05/18 11:54:27;;;;;;;7.05;2.47;;;16.60;99.70;;;;;;4994293;28;20049;-69
2023/05/18 11:56:53;;;;;;;6.00;2.28;;;16.90;99.90;;;;;;4993671;28;20049;-69
2023/05/18 11:59:36;;;;;;;4.95;2.10;;;16.30;99.90;;;;;;4994056;28;20038;-70
2023/05/18 12:02:02;;;;;;;6.47;3.08;;;16.50;99.90;;;;;;4993619;28;20042;-68
2023/05/18 12:04:29;;;;;;;6.78;2.80;;;16.80;99.90;;;;;;4994165;28;20119;-69
2023/05/18 12:06:57;;;;;;;6.22;2.53;;;16.10;99.90;;;;;;4993983;28;20143;-69
2023/05/18 12:09:24;;;;;;;6.20;2.70;;;16.80;99.90;;;;;;4993757;28;20038;-69
2023/05/18 12:11:50;;;;;;;8.20;2.50;;;15.80;99.90;;;;;;4993765;28;20381;-68
2023/05/18 12:14:19;;;;;;;10.40;2.70;;;16.50;99.90;;;;;;4993492;28;20042;-69
2023/05/18 12:16:46;;;;;;;7.63;2.60;;;15.50;99.90;;;;;;4977379;28;20040;-69
2023/05/18 12:19:12;;;;;;;5.70;2.45;;;16.10;99.90;;;;;;5009838;28;20038;-69
2023/05/18 12:21:38;;;;;;;7.18;2.50;;;16.30;99.90;;;;;;4993534;28;20042;-69
2023/05/18 12:24:04;;;;;;;7.22;2.70;;;15.70;99.90;;;;;;4992918;28;20067;-69
2023/05/18 12:26:30;;;;;;;7.15;2.53;;;15.60;99.90;;;;;;4993610;28;20042;-69
2023/05/18 12:28:58;;;;;;;10.40;3.28;;;15.80;99.90;;;;;;4993160;28;20038;-69
2023/05/18 12:31:25;;;;;;;6.80;2.80;;;16.00;99.90;;;;;;4989667;28;20039;-69
2023/05/18 12:33:53;;;;;;;4.25;2.42;;;15.30;99.90;;;;;;4973878;28;20038;-69
2023/05/18 12:36:19;;;;;;;8.00;2.83;;;16.20;99.90;;;;;;4973857;28;20525;-69
2023/05/18 12:38:48;;;;;;;8.15;2.72;;;16.70;99.90;;;;;;4974101;28;20069;-69
2023/05/18 12:41:28;;;;;;;6.22;2.33;;;15.80;99.90;;;;;;4973958;28;20565;-69
2023/05/18 12:43:54;;;;;;;9.80;2.90;;;15.80;99.90;;;;;;4977654;28;20042;-69
2023/05/18 12:46:24;;;;;;;8.48;3.05;;;15.40;99.90;;;;;;4976429;28;20038;-69
2023/05/18 12:48:57;;;;;;;10.40;3.05;;;16.30;99.90;;;;;;4992361;28;20504;-69
2023/05/18 12:51:29;;;;;;;5.13;2.28;;;16.30;99.90;;;;;;4992741;28;20042;-69
2023/05/18 12:53:55;;;;;;;11.02;2.88;;;15.40;99.90;;;;;;4993028;28;20046;-69
2023/05/18 12:56:24;;;;;;;9.40;3.20;;;15.60;99.90;;;;;;4993063;28;20491;-68
2023/05/18 12:58:57;;;;;;;4.75;2.45;;;15.80;99.90;;;;;;4992789;28;20038;-69
2023/05/18 13:01:26;;;;;;;7.78;2.30;;;16.70;99.90;;;;;;4976403;28;20130;-68
2023/05/18 13:03:57;;;;;;;8.85;2.33;;;16.00;99.90;;;;;;4992747;28;20057;-68
2023/05/18 13:06:23;;;;;;;11.60;3.00;;;16.00;99.90;;;;;;4976109;28;20126;-69
2023/05/18 13:08:52;;;;;;;6.97;2.05;;;16.20;99.90;;;;;;4992598;28;20045;-69
2023/05/18 13:11:17;;;;;;;12.80;2.75;;;17.10;99.90;;;;;;4992673;28;20074;-69
2023/05/18 13:14:06;;;;;;;4.90;2.30;;;16.60;99.90;;;;;;4976336;28;20055;-68
2023/05/18 13:16:38;;;;;;;12.43;3.38;;;16.70;99.90;;;;;;4992477;28;20049;-69
2023/05/18 13:19:07;;;;;;;11.05;2.60;;;16.70;99.90;;;;;;4992788;28;20100;-69